Time;durP1;ratioP1;P1;durP2;ratioP2;P2;SDS_P1;SDS_P2;PMS_P1;PMS_P2;Temp;Humidity;BMP_temperature;BMP_pressure;BME280_temperature;BME280_humidity;BME280_pressure;Samples;Min_cycle;Max_cycle;Signal;HPM_P1;HPM_P2
2023/07/13 00:01:42;;;;;;;;;;;;;;;15.58;50.45;96452.16;6171935;28;20064;-69
2023/07/13 00:04:45;;;;;;;;;;;;;;;15.55;50.71;96452.44;6157575;28;19922;-70
2023/07/13 00:07:48;;;;;;;;;;;;;;;15.60;50.73;96455.50;6176532;28;20012;-70
2023/07/13 00:10:54;;;;;;;;;;;;;;;15.53;50.79;96459.69;6176413;28;19922;-70
2023/07/13 00:13:56;;;;;;;;;;;;;;;15.56;50.97;96459.38;6176221;28;20024;-70
2023/07/13 00:17:00;;;;;;;;;;;;;;;15.60;50.89;96463.47;6176160;28;19922;-69
2023/07/13 00:20:03;;;;;;;;;;;;;;;15.60;50.93;96460.81;6176108;28;19937;-71
2023/07/13 00:23:07;;;;;;;;;;;;;;;15.61;50.83;96456.34;6176048;28;19929;-70
2023/07/13 00:26:12;;;;;;;;;;;;;;;15.60;51.04;96466.09;6158860;28;19945;-70
2023/07/13 00:29:16;;;;;;;;;;;;;;;15.66;51.03;96454.09;6158752;28;19948;-70
2023/07/13 00:32:19;;;;;;;;;;;;;;;15.69;51.15;96453.84;6158874;28;19922;-70
2023/07/13 00:35:23;;;;;;;;;;;;;;;15.76;51.12;96454.09;6175955;28;20007;-70
2023/07/13 00:38:27;;;;;;;;;;;;;;;15.81;51.04;96446.56;6175742;28;19929;-69
2023/07/13 00:41:31;;;;;;;;;;;;;;;15.79;51.02;96449.34;6175887;28;19922;-70
2023/07/13 00:44:34;;;;;;;;;;;;;;;15.81;51.08;96446.56;6175528;28;20024;-70
2023/07/13 00:47:41;;;;;;;;;;;;;;;15.75;51.20;96452.44;6175665;28;19921;-70
2023/07/13 00:50:46;;;;;;;;;;;;;;;15.86;50.93;96457.59;6158213;28;19965;-69
2023/07/13 00:53:51;;;;;;;;;;;;;;;15.73;51.42;96476.44;6175386;28;20024;-71
2023/07/13 00:56:57;;;;;;;;;;;;;;;15.80;51.22;96477.56;6158251;28;19922;-71
2023/07/13 01:00:08;;;;;;;;;;;;;;;15.85;51.28;96477.13;6158234;28;19922;-70
2023/07/13 01:03:11;;;;;;;;;;;;;;;15.82;51.36;96464.97;6157736;28;20391;-71
2023/07/13 01:06:14;;;;;;;;;;;;;;;15.88;51.46;96447.66;6175081;28;20019;-71
2023/07/13 01:09:17;;;;;;;;;;;;;;;16.02;51.17;96433.97;6175155;28;19922;-70
2023/07/13 01:12:21;;;;;;;;;;;;;;;16.15;50.79;96431.81;6175029;28;19928;-71
2023/07/13 01:15:33;;;;;;;;;;;;;;;16.20;50.71;96443.81;6156878;28;20012;-71
2023/07/13 01:18:36;;;;;;;;;;;;;;;16.33;50.44;96446.97;6174465;28;19928;-70
2023/07/13 01:21:42;;;;;;;;;;;;;;;16.32;50.46;96442.66;6174610;28;20008;-71
2023/07/13 01:24:47;;;;;;;;;;;;;;;16.43;50.50;96441.63;6174762;28;19926;-71
2023/07/13 01:27:50;;;;;;;;;;;;;;;16.46;50.38;96442.16;6174560;28;19921;-71
2023/07/13 01:30:55;;;;;;;;;;;;;;;16.58;50.25;96446.31;6157134;28;19921;-71
2023/07/13 01:33:58;;;;;;;;;;;;;;;16.63;50.21;96443.22;6174580;28;19922;-69
2023/07/13 01:37:01;;;;;;;;;;;;;;;16.60;50.38;96444.34;6174630;28;20424;-70
2023/07/13 01:40:05;;;;;;;;;;;;;;;16.66;50.34;96442.91;6174387;28;19922;-70
2023/07/13 01:43:09;;;;;;;;;;;;;;;16.71;50.08;96437.16;6174122;28;20196;-70
2023/07/13 01:46:11;;;;;;;;;;;;;;;16.74;50.12;96428.91;6174350;28;19922;-70
2023/07/13 01:49:14;;;;;;;;;;;;;;;16.83;50.17;96433.34;6174435;28;19922;-70
2023/07/13 01:52:18;;;;;;;;;;;;;;;16.77;50.13;96444.56;6174001;28;20020;-71
2023/07/13 01:55:22;;;;;;;;;;;;;;;16.74;50.36;96450.16;6174237;28;20021;-70
2023/07/13 01:58:25;;;;;;;;;;;;;;;16.77;50.37;96447.22;6173977;28;19952;-71
2023/07/13 02:01:29;;;;;;;;;;;;;;;16.81;50.51;96446.78;6156689;28;19926;-69
2023/07/13 02:04:33;;;;;;;;;;;;;;;17.00;50.18;96443.16;6173761;28;20443;-71
2023/07/13 02:07:37;;;;;;;;;;;;;;;17.02;50.24;96438.53;6173927;28;19928;-70
2023/07/13 02:10:40;;;;;;;;;;;;;;;17.08;50.11;96438.94;6173636;28;19928;-70
2023/07/13 02:13:44;;;;;;;;;;;;;;;17.30;49.96;96443.81;6156211;28;19976;-70
2023/07/13 02:16:48;;;;;;;;;;;;;;;17.58;49.22;96435.72;6173618;28;19921;-71
2023/07/13 02:19:52;;;;;;;;;;;;;;;17.82;48.66;96430.63;6173041;28;19922;-71
2023/07/13 02:22:54;;;;;;;;;;;;;;;18.05;48.43;96438.94;6140013;28;20079;-71
2023/07/13 02:25:58;;;;;;;;;;;;;;;18.31;48.26;96446.91;6172991;28;20028;-71
2023/07/13 02:29:00;;;;;;;;;;;;;;;18.60;47.83;96440.41;6172811;28;19929;-71
2023/07/13 02:32:04;;;;;;;;;;;;;;;18.83;47.39;96441.53;6173268;28;19922;-72
2023/07/13 02:35:08;;;;;;;;;;;;;;;19.17;46.88;96453.13;6173069;28;20028;-71
2023/07/13 02:38:11;;;;;;;;;;;;;;;19.53;46.49;96453.66;6155559;28;20371;-71
2023/07/13 02:41:15;;;;;;;;;;;;;;;19.78;46.12;96461.72;6173127;28;20408;-70
2023/07/13 02:44:19;;;;;;;;;;;;;;;19.93;45.89;96460.06;6172662;28;19922;-70
2023/07/13 02:47:23;;;;;;;;;;;;;;;20.04;45.22;96461.53;6172844;28;20012;-69
2023/07/13 02:50:27;;;;;;;;;;;;;;;20.07;45.06;96462.06;6173394;28;19921;-70
2023/07/13 02:53:30;;;;;;;;;;;;;;;20.14;44.31;96465.72;6172806;28;19928;-71
2023/07/13 02:56:34;;;;;;;;;;;;;;;20.05;44.70;96457.88;6172765;28;20295;-70
2023/07/13 02:59:37;;;;;;;;;;;;;;;20.04;44.39;96457.06;6172429;28;20466;-70
2023/07/13 03:02:41;;;;;;;;;;;;;;;19.95;44.20;96455.38;6155402;28;19928;-71
2023/07/13 03:05:44;;;;;;;;;;;;;;;19.97;44.38;96456.06;6154901;28;19969;-71
2023/07/13 03:08:49;;;;;;;;;;;;;;;20.12;44.44;96453.53;6172513;28;20024;-70
2023/07/13 03:11:55;;;;;;;;;;;;;;;20.26;44.33;96454.69;6172295;28;19922;-70
2023/07/13 03:14:59;;;;;;;;;;;;;;;20.42;43.92;96452.81;6172346;28;19921;-70
2023/07/13 03:18:01;;;;;;;;;;;;;;;20.68;43.91;96453.59;6154974;28;19922;-70
2023/07/13 03:21:05;;;;;;;;;;;;;;;21.01;43.05;96455.13;6172176;28;19928;-69
2023/07/13 03:24:08;;;;;;;;;;;;;;;21.28;42.58;96456.47;6172238;28;19922;-71
2023/07/13 03:27:12;;;;;;;;;;;;;;;21.37;42.50;96454.59;6172064;28;19929;-71
2023/07/13 03:30:16;;;;;;;;;;;;;;;21.49;42.41;96463.91;6154549;28;19921;-70
2023/07/13 03:33:19;;;;;;;;;;;;;;;21.48;42.13;96461.38;6154596;28;20299;-69
2023/07/13 03:36:25;;;;;;;;;;;;;;;21.47;42.16;96471.28;6172093;28;20302;-70
2023/07/13 03:39:28;;;;;;;;;;;;;;;21.44;41.98;96482.34;6157184;28;19922;-70
2023/07/13 03:42:32;;;;;;;;;;;;;;;21.42;41.86;96484.34;6176752;28;20024;-71
2023/07/13 03:45:38;;;;;;;;;;;;;;;21.47;42.44;96481.16;6176873;28;20303;-72
2023/07/13 03:48:43;;;;;;;;;;;;;;;21.52;41.65;96479.59;6176700;28;19922;-70
2023/07/13 03:51:47;;;;;;;;;;;;;;;21.50;40.88;96470.91;6176678;28;19932;-71
2023/07/13 03:54:51;;;;;;;;;;;;;;;21.63;40.75;96464.16;6176547;28;19928;-70
2023/07/13 03:57:59;;;;;;;;;;;;;;;21.67;40.71;96468.94;6176552;28;19928;-71
2023/07/13 04:01:03;;;;;;;;;;;;;;;21.72;40.02;96463.06;6176434;28;20028;-71
2023/07/13 04:04:06;;;;;;;;;;;;;;;21.68;39.59;96462.59;6176370;28;19944;-70
2023/07/13 04:07:09;;;;;;;;;;;;;;;21.71;38.99;96466.75;6176413;28;19928;-72
2023/07/13 04:10:13;;;;;;;;;;;;;;;21.78;39.14;96466.88;6176389;28;19944;-72
2023/07/13 04:13:17;;;;;;;;;;;;;;;21.65;39.71;96467.47;6159158;28;19922;-71
2023/07/13 04:16:20;;;;;;;;;;;;;;;21.49;39.92;96473.78;6175957;28;20008;-71
2023/07/13 04:19:24;;;;;;;;;;;;;;;21.47;39.91;96465.91;6175854;28;20388;-72
2023/07/13 04:22:28;;;;;;;;;;;;;;;21.65;39.80;96467.47;6175695;28;20388;-70
2023/07/13 04:25:32;;;;;;;;;;;;;;;22.08;39.30;96470.47;6175963;28;19922;-70
2023/07/13 04:28:36;;;;;;;;;;;;;;;22.69;38.02;96465.84;6175806;28;19922;-69
2023/07/13 04:31:37;;;;;;;;;;;;;;;23.23;36.40;96468.22;6175814;28;20288;-70
2023/07/13 04:34:41;;;;;;;;;;;;;;;23.64;36.48;96466.81;6175578;28;19929;-70
2023/07/13 04:37:49;;;;;;;;;;;;;;;24.13;35.72;96469.56;6175209;28;19929;-70
2023/07/13 04:40:51;;;;;;;;;;;;;;;24.67;35.46;96459.22;6175113;28;19922;-70
2023/07/13 04:43:52;;;;;;;;;;;;;;;24.85;34.85;96472.97;6157788;28;19926;-71
2023/07/13 04:46:53;;;;;;;;;;;;;;;24.96;34.11;96475.09;6175031;28;19931;-72
2023/07/13 04:49:55;;;;;;;;;;;;;;;25.06;34.73;96467.50;6174777;28;19925;-70
2023/07/13 04:52:56;;;;;;;;;;;;;;;24.99;35.25;96463.91;6174718;28;19922;-71
2023/07/13 04:56:00;;;;;;;;;;;;;;;24.75;35.95;96472.50;6175067;28;19918;-71
2023/07/13 04:59:03;;;;;;;;;;;;;;;24.92;36.32;96468.47;6174862;28;19922;-71
2023/07/13 05:02:07;;;;;;;;;;;;;;;28.10;32.34;96474.63;6175231;28;20492;-72
2023/07/13 05:05:09;;;;;;;;;;;;;;;32.40;28.41;96482.69;6174092;28;19921;-70
2023/07/13 05:08:12;;;;;;;;;;;;;;;36.32;25.03;96491.09;6175185;28;19922;-70
2023/07/13 05:11:15;;;;;;;;;;;;;;;38.22;24.65;96488.66;6174919;28;19922;-71
2023/07/13 05:14:18;;;;;;;;;;;;;;;40.68;22.58;96481.13;6174661;28;20012;-72
2023/07/13 05:17:23;;;;;;;;;;;;;;;43.44;17.67;96475.72;6174841;28;19925;-71
2023/07/13 05:20:29;;;;;;;;;;;;;;;45.41;20.66;96472.69;6174666;28;20072;-71
2023/07/13 05:23:30;;;;;;;;;;;;;;;46.56;13.86;96466.84;6174173;28;19922;-72
2023/07/13 05:26:34;;;;;;;;;;;;;;;47.61;18.08;96466.47;6174282;28;19922;-70
2023/07/13 05:29:36;;;;;;;;;;;;;;;49.13;16.25;96467.72;6173926;28;19922;-72
2023/07/13 05:32:40;;;;;;;;;;;;;;;50.36;15.97;96478.59;6156527;28;20308;-71
2023/07/13 05:35:41;;;;;;;;;;;;;;;50.21;16.93;96477.47;6156646;28;19922;-71
2023/07/13 05:38:47;;;;;;;;;;;;;;;49.15;15.32;96454.19;6174220;28;19921;-71
2023/07/13 05:41:53;;;;;;;;;;;;;;;48.47;10.68;96447.56;6157490;28;19921;-73
2023/07/13 05:44:56;;;;;;;;;;;;;;;49.21;15.22;96447.97;6173780;28;19922;-73
2023/07/13 05:47:59;;;;;;;;;;;;;;;50.28;14.39;96455.28;6173349;28;19983;-72
2023/07/13 05:51:02;;;;;;;;;;;;;;;50.44;12.52;96440.38;6156210;28;20017;-71
2023/07/13 05:54:07;;;;;;;;;;;;;;;49.07;12.42;96432.84;6173017;28;19922;-72
2023/07/13 05:57:13;;;;;;;;;;;;;;;47.28;14.58;96427.56;6173783;28;19922;-72
2023/07/13 06:00:20;;;;;;;;;;;;;;;45.91;15.32;96413.56;6173695;28;20468;-71
2023/07/13 06:03:27;;;;;;;;;;;;;;;46.78;12.91;96418.34;6173236;28;19921;-71
2023/07/13 06:06:30;;;;;;;;;;;;;;;47.60;11.82;96418.28;6156329;28;20034;-70
2023/07/13 06:09:34;;;;;;;;;;;;;;;48.65;12.56;96419.34;6173534;28;19922;-73
2023/07/13 06:12:38;;;;;;;;;;;;;;;50.10;10.62;96417.69;6156509;28;19922;-71
2023/07/13 06:15:47;;;;;;;;;;;;;;;48.95;10.89;96417.78;6173631;28;19921;-72
2023/07/13 06:18:51;;;;;;;;;;;;;;;45.54;12.13;96395.84;6173393;28;20388;-72
2023/07/13 06:21:52;;;;;;;;;;;;;;;43.66;13.48;96394.47;6172371;28;19944;-73
2023/07/13 06:24:54;;;;;;;;;;;;;;;42.09;13.68;96369.97;6155605;28;20412;-71
2023/07/13 06:27:57;;;;;;;;;;;;;;;41.76;14.38;96375.75;6155522;28;19921;-71
2023/07/13 06:30:59;;;;;;;;;;;;;;;42.25;13.84;96368.47;6172827;28;19918;-72
2023/07/13 06:34:02;;;;;;;;;;;;;;;42.01;14.69;96367.97;6173257;28;20376;-72
2023/07/13 06:37:07;;;;;;;;;;;;;;;42.20;14.82;96363.06;6173182;28;20304;-71
2023/07/13 06:40:11;;;;;;;;;;;;;;;43.16;12.62;96358.84;6172901;28;19922;-74
2023/07/13 06:43:18;;;;;;;;;;;;;;;45.08;12.99;96367.00;6172769;28;19922;-72
2023/07/13 06:46:23;;;;;;;;;;;;;;;47.46;10.88;96370.47;6172930;28;19993;-72
2023/07/13 06:49:25;;;;;;;;;;;;;;;50.28;10.41;96376.91;6172721;28;19921;-72
2023/07/13 06:52:29;;;;;;;;;;;;;;;52.80;8.98;96376.59;6172920;28;19922;-72
2023/07/13 06:55:32;;;;;;;;;;;;;;;51.66;9.41;96384.47;6172978;28;19930;-72
2023/07/13 06:58:36;;;;;;;;;;;;;;;49.61;10.38;96373.47;6172287;28;19992;-72
2023/07/13 07:01:39;;;;;;;;;;;;;;;50.41;10.57;96368.34;6172264;28;19921;-72
2023/07/13 07:04:43;;;;;;;;;;;;;;;49.41;10.11;96373.41;6172584;28;20355;-73
2023/07/13 07:07:44;;;;;;;;;;;;;;;49.19;11.28;96371.25;6155472;28;19929;-72
2023/07/13 07:10:51;;;;;;;;;;;;;;;51.58;9.92;96358.28;6172208;28;19922;-71
2023/07/13 07:13:57;;;;;;;;;;;;;;;54.32;8.54;96376.41;6172427;28;19951;-72
2023/07/13 07:17:05;;;;;;;;;;;;;;;55.23;8.27;96367.63;6172105;28;19922;-72
2023/07/13 07:20:09;;;;;;;;;;;;;;;53.67;9.67;96362.03;6172243;28;19926;-72
2023/07/13 07:23:11;;;;;;;;;;;;;;;54.54;8.51;96366.78;6172204;28;19929;-73
2023/07/13 07:26:12;;;;;;;;;;;;;;;55.93;6.31;96357.44;6171944;28;19929;-72
2023/07/13 07:29:19;;;;;;;;;;;;;;;55.32;6.91;96365.22;6154323;28;19975;-73
2023/07/13 07:32:21;;;;;;;;;;;;;;;53.21;6.65;96344.84;6154595;28;19996;-73
2023/07/13 07:35:28;;;;;;;;;;;;;;;51.19;8.38;96341.72;6172197;28;20000;-73
2023/07/13 07:38:32;;;;;;;;;;;;;;;51.04;8.89;96339.84;6171649;28;19929;-72
2023/07/13 07:41:35;;;;;;;;;;;;;;;51.03;8.17;96327.03;6171296;28;20117;-73
2023/07/13 07:44:40;;;;;;;;;;;;;;;50.19;8.58;96328.72;6170390;28;20031;-73
2023/07/13 07:47:44;;;;;;;;;;;;;;;50.95;8.04;96314.06;6171416;28;20019;-71
2023/07/13 07:50:48;;;;;;;;;;;;;;;51.77;7.74;96315.28;6171396;28;20085;-72
2023/07/13 07:53:51;;;;;;;;;;;;;;;52.71;7.01;96305.91;6171943;28;19929;-74
2023/07/13 07:56:53;;;;;;;;;;;;;;;54.39;7.18;96318.09;6171665;28;20012;-72
2023/07/13 07:59:57;;;;;;;;;;;;;;;56.10;6.20;96321.06;6170963;28;19964;-73
2023/07/13 08:03:01;;;;;;;;;;;;;;;55.45;6.33;96315.66;6171324;28;19937;-72
2023/07/13 08:06:07;;;;;;;;;;;;;;;55.84;6.17;96306.25;6155220;28;19921;-72
2023/07/13 08:09:09;;;;;;;;;;;;;;;55.30;5.53;96297.97;6172163;28;19917;-72
2023/07/13 08:12:12;;;;;;;;;;;;;;;55.22;6.34;96306.81;6171305;28;19921;-73
2023/07/13 08:15:16;;;;;;;;;;;;;;;55.30;5.67;96309.25;6171648;28;19980;-72
2023/07/13 08:18:19;;;;;;;;;;;;;;;53.37;7.14;96294.75;6171349;28;19922;-72
2023/07/13 08:21:23;;;;;;;;;;;;;;;53.36;6.29;96296.75;6154579;28;19928;-71
2023/07/13 08:24:25;;;;;;;;;;;;;;;52.81;6.96;96282.72;6171620;28;20020;-73
2023/07/13 08:27:28;;;;;;;;;;;;;;;50.62;7.82;96262.34;6175686;28;19921;-73
2023/07/13 08:30:36;;;;;;;;;;;;;;;49.78;8.16;96263.97;6175813;28;19922;-72
2023/07/13 08:33:43;;;;;;;;;;;;;;;50.36;7.78;96254.69;6175717;28;20016;-73
2023/07/13 08:36:47;;;;;;;;;;;;;;;51.70;7.20;96272.31;6174489;28;19969;-72
2023/07/13 08:39:49;;;;;;;;;;;;;;;50.23;7.69;96262.44;6157845;28;20020;-72
2023/07/13 08:42:56;;;;;;;;;;;;;;;49.82;7.92;96252.84;6174918;28;19929;-72
2023/07/13 08:46:05;;;;;;;;;;;;;;;49.66;7.92;96238.97;6175026;28;19922;-73
2023/07/13 08:49:13;;;;;;;;;;;;;;;47.69;9.15;96234.94;6174005;28;19944;-72
2023/07/13 08:52:29;;;;;;;;;;;;;;;48.17;8.73;96226.72;6174710;28;19921;-73
2023/07/13 08:55:37;;;;;;;;;;;;;;;48.81;8.59;96227.50;6174277;28;19943;-72
2023/07/13 08:58:42;;;;;;;;;;;;;;;50.49;8.05;96219.72;6174504;28;20311;-73
2023/07/13 09:02:06;;;;;;;;;;;;;;;51.31;6.88;96231.34;6174385;28;19928;-72
2023/07/13 09:05:10;;;;;;;;;;;;;;;48.28;8.72;96215.84;6174690;28;19928;-72
2023/07/13 09:08:21;;;;;;;;;;;;;;;47.32;8.98;96209.19;6174372;28;19928;-73
2023/07/13 09:11:43;;;;;;;;;;;;;;;46.34;9.71;96210.09;6174754;28;19938;-73
2023/07/13 09:14:47;;;;;;;;;;;;;;;46.43;9.63;96195.28;6157290;28;19957;-72
2023/07/13 09:17:50;;;;;;;;;;;;;;;48.15;8.64;96195.56;6157028;28;20451;-71
2023/07/13 09:20:55;;;;;;;;;;;;;;;48.87;8.50;96192.56;6173913;28;19922;-72
2023/07/13 09:24:01;;;;;;;;;;;;;;;49.72;8.16;96192.75;6174638;28;19922;-72
2023/07/13 09:27:17;;;;;;;;;;;;;;;49.55;8.49;96194.00;6174520;28;19922;-72
2023/07/13 09:30:40;;;;;;;;;;;;;;;49.54;8.08;96185.97;6174402;28;19922;-72
2023/07/13 09:33:45;;;;;;;;;;;;;;;49.17;8.50;96178.81;6161996;28;19984;-73
2023/07/13 09:36:46;;;;;;;;;;;;;;;49.66;8.33;96177.47;6172585;28;19929;-72
2023/07/13 09:39:49;;;;;;;;;;;;;;;48.34;8.28;96153.81;6173430;28;19940;-72
2023/07/13 09:42:54;;;;;;;;;;;;;;;46.48;9.55;96153.31;6174367;28;20380;-72
2023/07/13 09:45:57;;;;;;;;;;;;;;;44.82;10.07;96145.91;6157309;28;20016;-72
2023/07/13 09:49:04;;;;;;;;;;;;;;;41.61;11.93;96144.09;6174059;28;20359;-72
2023/07/13 09:52:10;;;;;;;;;;;;;;;42.23;11.75;96144.03;6173378;28;19926;-72
2023/07/13 09:55:25;;;;;;;;;;;;;;;41.70;12.31;96136.66;6172921;28;20419;-70
2023/07/13 09:58:31;;;;;;;;;;;;;;;40.13;13.26;96124.25;6155669;28;20303;-73
2023/07/13 10:01:37;;;;;;;;;;;;;;;38.66;14.18;96131.19;6173436;28;20020;-73
2023/07/13 10:04:43;;;;;;;;;;;;;;;36.33;16.02;96122.94;6170780;28;19995;-72
2023/07/13 10:07:47;;;;;;;;;;;;;;;35.28;17.10;96121.84;6173018;28;19922;-73
2023/07/13 10:10:55;;;;;;;;;;;;;;;34.09;18.00;96130.09;6173782;28;19922;-72
2023/07/13 10:14:01;;;;;;;;;;;;;;;32.95;18.91;96124.94;6172879;28;19926;-72
2023/07/13 10:17:09;;;;;;;;;;;;;;;32.43;19.92;96120.03;6172989;28;20024;-72
2023/07/13 10:20:12;;;;;;;;;;;;;;;31.93;20.99;96123.81;6155967;28;19922;-72
2023/07/13 10:23:22;;;;;;;;;;;;;;;31.05;22.36;96120.88;6173124;28;19922;-71
2023/07/13 10:26:27;;;;;;;;;;;;;;;30.25;23.04;96125.44;6173017;28;19922;-71
2023/07/13 10:29:35;;;;;;;;;;;;;;;29.43;23.76;96118.25;6173735;28;19922;-70
2023/07/13 10:32:38;;;;;;;;;;;;;;;28.53;25.06;96113.91;6172217;28;19929;-71
2023/07/13 10:35:42;;;;;;;;;;;;;;;28.43;25.71;96127.19;6171982;28;19984;-71
2023/07/13 10:38:43;;;;;;;;;;;;;;;28.07;25.65;96109.94;6172267;28;19938;-70
2023/07/13 10:41:49;;;;;;;;;;;;;;;27.60;26.58;96109.69;6172512;28;19941;-72
2023/07/13 10:44:50;;;;;;;;;;;;;;;27.01;26.38;96100.28;6172391;28;20016;-71
2023/07/13 10:47:55;;;;;;;;;;;;;;;27.28;26.77;96101.69;6171801;28;19968;-71
2023/07/13 10:51:01;;;;;;;;;;;;;;;27.38;27.31;96092.25;6172354;28;19926;-70
2023/07/13 10:54:16;;;;;;;;;;;;;;;27.77;26.54;96083.69;6172722;28;19922;-71
2023/07/13 10:57:24;;;;;;;;;;;;;;;29.72;24.34;96099.38;6172528;28;20420;-71
2023/07/13 11:00:31;;;;;;;;;;;;;;;31.95;22.34;96099.91;6155693;28;19922;-71
2023/07/13 11:03:35;;;;;;;;;;;;;;;33.40;20.52;96110.00;6171975;28;20018;-71
2023/07/13 11:06:41;;;;;;;;;;;;;;;34.25;19.48;96096.25;6172744;28;20339;-72
2023/07/13 11:09:47;;;;;;;;;;;;;;;35.38;18.57;96088.16;6171855;28;19918;-72
2023/07/13 11:12:54;;;;;;;;;;;;;;;35.64;18.18;96088.94;6171269;28;19921;-71
2023/07/13 11:15:59;;;;;;;;;;;;;;;35.43;18.84;96085.44;6172498;28;20327;-71
2023/07/13 11:19:03;;;;;;;;;;;;;;;34.57;19.32;96089.81;6172132;28;19921;-70
2023/07/13 11:22:13;;;;;;;;;;;;;;;33.03;20.48;96083.59;6171280;28;20423;-71
2023/07/13 11:25:20;;;;;;;;;;;;;;;31.77;22.24;96088.25;6172327;28;20300;-71
2023/07/13 11:28:23;;;;;;;;;;;;;;;31.02;23.11;96072.47;6172794;28;20335;-71
2023/07/13 11:31:25;;;;;;;;;;;;;;;30.60;23.33;96079.13;6155151;28;19922;-72
2023/07/13 11:34:33;;;;;;;;;;;;;;;29.34;25.24;96065.50;6172037;28;19926;-72
2023/07/13 11:37:39;;;;;;;;;;;;;;;29.14;25.78;96071.28;6171860;28;19922;-72
2023/07/13 11:40:46;;;;;;;;;;;;;;;28.75;26.07;96078.19;6171182;28;19921;-71
2023/07/13 11:43:53;;;;;;;;;;;;;;;27.87;26.84;96061.53;6171728;28;20392;-71
2023/07/13 11:47:02;;;;;;;;;;;;;;;27.95;28.18;96073.94;6171831;28;20296;-72
2023/07/13 11:50:06;;;;;;;;;;;;;;;27.30;28.36;96061.78;6171523;28;20261;-72
2023/07/13 11:53:09;;;;;;;;;;;;;;;26.34;28.35;96057.59;6154505;28;19922;-72
2023/07/13 11:56:13;;;;;;;;;;;;;;;26.03;28.97;96089.94;6172073;28;19926;-72
2023/07/13 11:59:18;;;;;;;;;;;;;;;25.70;31.33;96083.66;6171539;28;19929;-73
2023/07/13 12:02:42;;;;;;;;;;;;;;;24.84;34.64;96084.66;6176229;28;19922;-71
2023/07/13 12:05:57;;;;;;;;;;;;;;;24.17;37.66;96082.91;6158322;28;20052;-72
2023/07/13 12:09:12;;;;;;;;;;;;;;;23.37;39.38;96087.16;6176371;28;19922;-72
2023/07/13 12:12:19;;;;;;;;;;;;;;;22.93;40.23;96090.97;6176178;28;20350;-72
2023/07/13 12:15:23;;;;;;;;;;;;;;;22.54;41.67;96085.13;6175324;28;20384;-72
2023/07/13 12:18:29;;;;;;;;;;;;;;;21.94;43.40;96092.56;6175015;28;19917;-71
2023/07/13 12:21:34;;;;;;;;;;;;;;;21.68;44.21;96119.03;6175185;28;20308;-70
2023/07/13 12:24:39;;;;;;;;;;;;;;;20.67;45.86;96096.41;6175364;28;19948;-70
2023/07/13 12:27:46;;;;;;;;;;;;;;;20.35;47.42;96100.97;6175509;28;19929;-71
2023/07/13 12:30:48;;;;;;;;;;;;;;;19.83;50.78;96112.34;6175450;28;20380;-71
2023/07/13 12:34:18;;;;;;;;;;;;;;;19.08;53.71;96094.97;6175868;28;19922;-70
2023/07/13 12:37:21;;;;;;;;;;;;;;;18.67;56.59;96105.66;6173632;28;19921;-69
2023/07/13 12:40:27;;;;;;;;;;;;;;;18.39;57.70;96108.69;6175718;28;20392;-71
2023/07/13 12:43:36;;;;;;;;;;;;;;;18.39;57.95;96108.69;6175242;28;20017;-70
2023/07/13 12:46:51;;;;;;;;;;;;;;;18.22;58.64;96123.00;6175498;28;19922;-70
2023/07/13 12:49:58;;;;;;;;;;;;;;;18.17;58.82;96117.31;6175467;28;19922;-71
2023/07/13 12:53:07;;;;;;;;;;;;;;;17.86;58.71;96122.44;6174726;28;19922;-71
2023/07/13 12:56:15;;;;;;;;;;;;;;;17.70;59.10;96128.53;6175362;28;19959;-70
2023/07/13 12:59:20;;;;;;;;;;;;;;;17.62;59.40;96120.53;6175238;28;20371;-71
2023/07/13 13:02:24;;;;;;;;;;;;;;;17.51;60.14;96133.09;6175015;28;20023;-71
2023/07/13 13:05:26;;;;;;;;;;;;;;;17.55;61.70;96125.66;6157432;28;20017;-71
2023/07/13 13:08:35;;;;;;;;;;;;;;;17.39;63.12;96121.09;6174294;28;20068;-71
2023/07/13 13:11:36;;;;;;;;;;;;;;;17.48;62.79;96124.63;6174713;28;20050;-72
2023/07/13 13:14:37;;;;;;;;;;;;;;;17.88;62.77;96126.59;6174702;28;20332;-72
2023/07/13 13:17:40;;;;;;;;;;;;;;;18.14;62.46;96120.31;6174746;28;20396;-70
2023/07/13 13:20:41;;;;;;;;;;;;;;;18.30;61.43;96111.53;6173875;28;19929;-70
2023/07/13 13:23:45;;;;;;;;;;;;;;;18.57;60.49;96105.00;6174772;28;19921;-71
2023/07/13 13:26:47;;;;;;;;;;;;;;;18.66;59.85;96096.03;6175343;28;19925;-71
2023/07/13 13:29:54;;;;;;;;;;;;;;;18.81;59.33;96099.69;6174518;28;20669;-71
2023/07/13 13:32:57;;;;;;;;;;;;;;;18.87;58.68;96092.00;6174393;28;19922;-73
2023/07/13 13:35:58;;;;;;;;;;;;;;;18.95;58.60;96100.00;6173585;28;19921;-72
2023/07/13 13:39:04;;;;;;;;;;;;;;;19.11;57.66;96091.09;6174288;28;19922;-71
2023/07/13 13:42:09;;;;;;;;;;;;;;;19.24;57.24;96094.88;6174023;28;19926;-70
2023/07/13 13:45:17;;;;;;;;;;;;;;;19.39;56.51;96088.84;6173572;28;19933;-70
2023/07/13 13:48:30;;;;;;;;;;;;;;;19.56;56.08;96085.09;6173745;28;19922;-71
2023/07/13 13:51:31;;;;;;;;;;;;;;;19.69;55.95;96082.72;6156284;28;20376;-70
2023/07/13 13:54:32;;;;;;;;;;;;;;;19.82;55.34;96078.66;6173048;28;19929;-70
2023/07/13 13:57:36;;;;;;;;;;;;;;;20.07;54.84;96071.28;6172762;28;19929;-71
2023/07/13 14:00:37;;;;;;;;;;;;;;;20.22;54.73;96068.69;6173000;28;20285;-71
2023/07/13 14:03:39;;;;;;;;;;;;;;;20.22;54.93;96063.34;6172953;28;19922;-73
2023/07/13 14:06:43;;;;;;;;;;;;;;;20.30;54.18;96060.63;6173832;28;20414;-71
2023/07/13 14:09:45;;;;;;;;;;;;;;;20.33;54.57;96041.56;6172960;28;19933;-75
2023/07/13 14:12:50;;;;;;;;;;;;;;;20.28;54.49;96036.75;6173274;28;19921;-71
2023/07/13 14:15:54;;;;;;;;;;;;;;;20.20;54.15;96039.47;6155693;28;19922;-72
2023/07/13 14:18:58;;;;;;;;;;;;;;;20.14;54.18;96043.69;6155271;28;19925;-72
2023/07/13 14:22:01;;;;;;;;;;;;;;;20.13;54.53;96039.38;6171969;28;20017;-72
2023/07/13 14:25:02;;;;;;;;;;;;;;;20.13;54.02;96034.03;6155482;28;20396;-71
2023/07/13 14:28:24;;;;;;;;;;;;;;;20.12;53.79;96036.88;6173194;28;19922;-71
2023/07/13 14:31:30;;;;;;;;;;;;;;;20.23;53.40;96027.59;6172271;28;19918;-73
2023/07/13 14:34:31;;;;;;;;;;;;;;;20.30;53.23;96028.56;6172771;28;19922;-73
2023/07/13 14:37:34;;;;;;;;;;;;;;;20.25;53.38;96025.59;6172525;28;19928;-70
2023/07/13 14:40:42;;;;;;;;;;;;;;;20.27;53.17;96023.53;6172895;28;19929;-71
2023/07/13 14:43:50;;;;;;;;;;;;;;;20.30;53.11;96017.88;6172745;28;19918;-72
2023/07/13 14:46:58;;;;;;;;;;;;;;;20.23;53.76;96030.28;6154921;28;20345;-70
2023/07/13 14:50:05;;;;;;;;;;;;;;;20.18;53.12;96015.63;6172600;28;20298;-70
2023/07/13 14:53:11;;;;;;;;;;;;;;;20.15;53.35;96018.63;6171363;28;20323;-71
2023/07/13 14:56:17;;;;;;;;;;;;;;;20.08;53.24;96014.22;6172469;28;20017;-70
2023/07/13 14:59:20;;;;;;;;;;;;;;;19.98;53.30;96014.44;6171905;28;19921;-71
2023/07/13 15:02:21;;;;;;;;;;;;;;;19.95;53.32;96020.13;6171919;28;19922;-71
2023/07/13 15:05:31;;;;;;;;;;;;;;;19.97;52.72;96018.13;6155470;28;19922;-71
2023/07/13 15:08:32;;;;;;;;;;;;;;;19.96;53.03;96021.81;6172018;28;19965;-71
2023/07/13 15:11:35;;;;;;;;;;;;;;;19.98;54.11;96021.63;6172192;28;19921;-70
2023/07/13 15:14:36;;;;;;;;;;;;;;;19.98;53.14;96027.78;6172189;28;20439;-69
2023/07/13 15:17:43;;;;;;;;;;;;;;;20.03;52.86;96014.75;6172428;28;19922;-71
2023/07/13 15:20:48;;;;;;;;;;;;;;;19.94;53.81;96023.84;6171945;28;19925;-72
2023/07/13 15:23:49;;;;;;;;;;;;;;;19.66;54.40;96015.53;6171614;28;20400;-70
2023/07/13 15:26:53;;;;;;;;;;;;;;;19.56;54.61;96006.88;6171694;28;19922;-70
2023/07/13 15:29:56;;;;;;;;;;;;;;;19.47;54.47;96000.75;6171573;28;20403;-70
2023/07/13 15:33:06;;;;;;;;;;;;;;;19.47;55.74;96000.75;6154132;28;20300;-71
2023/07/13 15:36:09;;;;;;;;;;;;;;;19.37;56.93;95995.66;6174749;28;20020;-72
2023/07/13 15:39:16;;;;;;;;;;;;;;;19.28;57.75;95986.03;6176975;28;20408;-73
2023/07/13 15:42:19;;;;;;;;;;;;;;;19.03;57.76;95980.00;6176370;28;19929;-71
2023/07/13 15:45:22;;;;;;;;;;;;;;;18.96;58.41;95973.69;6176287;28;19922;-73
2023/07/13 15:48:27;;;;;;;;;;;;;;;18.97;58.19;95968.19;6176778;28;19933;-72
2023/07/13 15:51:30;;;;;;;;;;;;;;;18.88;58.01;95974.56;6176056;28;20006;-72
2023/07/13 15:54:31;;;;;;;;;;;;;;;18.90;57.99;95971.72;6176082;28;20414;-72
2023/07/13 15:57:41;;;;;;;;;;;;;;;18.85;58.15;95980.22;6176583;28;20359;-71
2023/07/13 16:00:44;;;;;;;;;;;;;;;18.81;58.00;95979.75;6159132;28;20384;-72
2023/07/13 16:03:48;;;;;;;;;;;;;;;18.79;58.79;95965.75;6176139;28;19926;-71